sensor_id;sensor_type;location;lat;lon;timestamp;P1;durP1;ratioP1;P2;durP2;ratioP2
70169;SDS011;57543;45.442;9.212;2022-09-01T00:00:10;13.13;;;8.57;;
70169;SDS011;57543;45.442;9.212;2022-09-01T00:03:18;11.53;;;7.83;;
70169;SDS011;57543;45.442;9.212;2022-09-01T00:06:25;11.77;;;7.18;;
70169;SDS011;57543;45.442;9.212;2022-09-01T00:09:29;12.23;;;7.95;;
70169;SDS011;57543;45.442;9.212;2022-09-01T00:12:33;11.48;;;7.50;;
70169;SDS011;57543;45.442;9.212;2022-09-01T00:15:38;10.70;;;6.90;;
70169;SDS011;57543;45.442;9.212;2022-09-01T00:18:42;10.67;;;6.93;;
70169;SDS011;57543;45.442;9.212;2022-09-01T00:21:48;13.07;;;8.18;;
70169;SDS011;57543;45.442;9.212;2022-09-01T00:24:52;11.98;;;8.32;;
70169;SDS011;57543;45.442;9.212;2022-09-01T00:27:56;12.60;;;8.18;;
70169;SDS011;57543;45.442;9.212;2022-09-01T00:31:03;12.32;;;8.23;;
70169;SDS011;57543;45.442;9.212;2022-09-01T00:34:08;9.30;;;6.50;;
70169;SDS011;57543;45.442;9.212;2022-09-01T00:37:12;10.73;;;6.90;;
70169;SDS011;57543;45.442;9.212;2022-09-01T00:40:16;9.43;;;6.15;;
70169;SDS011;57543;45.442;9.212;2022-09-01T00:43:21;9.18;;;5.97;;
70169;SDS011;57543;45.442;9.212;2022-09-01T00:46:43;9.25;;;6.32;;
70169;SDS011;57543;45.442;9.212;2022-09-01T00:49:51;8.57;;;5.73;;
70169;SDS011;57543;45.442;9.212;2022-09-01T00:52:56;10.07;;;5.82;;
70169;SDS011;57543;45.442;9.212;2022-09-01T00:56:00;9.95;;;5.95;;
70169;SDS011;57543;45.442;9.212;2022-09-01T00:59:05;9.73;;;6.90;;
70169;SDS011;57543;45.442;9.212;2022-09-01T01:02:10;9.48;;;6.65;;
70169;SDS011;57543;45.442;9.212;2022-09-01T01:05:14;9.90;;;6.53;;
70169;SDS011;57543;45.442;9.212;2022-09-01T01:08:22;8.85;;;6.15;;
70169;SDS011;57543;45.442;9.212;2022-09-01T01:11:36;12.05;;;7.32;;
70169;SDS011;57543;45.442;9.212;2022-09-01T01:14:40;8.80;;;5.78;;
70169;SDS011;57543;45.442;9.212;2022-09-01T01:17:44;9.73;;;6.43;;
70169;SDS011;57543;45.442;9.212;2022-09-01T01:20:53;10.00;;;6.57;;
70169;SDS011;57543;45.442;9.212;2022-09-01T01:24:30;13.20;;;6.57;;
70169;SDS011;57543;45.442;9.212;2022-09-01T01:27:37;9.23;;;5.65;;
70169;SDS011;57543;45.442;9.212;2022-09-01T01:30:44;9.88;;;6.00;;
70169;SDS011;57543;45.442;9.212;2022-09-01T01:33:55;9.25;;;6.20;;
70169;SDS011;57543;45.442;9.212;2022-09-01T01:36:58;8.23;;;5.60;;
70169;SDS011;57543;45.442;9.212;2022-09-01T01:40:04;9.30;;;5.30;;
70169;SDS011;57543;45.442;9.212;2022-09-01T01:43:08;8.77;;;5.60;;
70169;SDS011;57543;45.442;9.212;2022-09-01T01:46:14;8.07;;;4.80;;
70169;SDS011;57543;45.442;9.212;2022-09-01T01:49:22;7.15;;;4.72;;
70169;SDS011;57543;45.442;9.212;2022-09-01T01:52:28;7.00;;;4.87;;
70169;SDS011;57543;45.442;9.212;2022-09-01T01:55:32;8.13;;;4.95;;
70169;SDS011;57543;45.442;9.212;2022-09-01T01:58:37;7.43;;;4.85;;
70169;SDS011;57543;45.442;9.212;2022-09-01T02:01:47;6.40;;;3.88;;
70169;SDS011;57543;45.442;9.212;2022-09-01T02:04:51;6.53;;;4.63;;
70169;SDS011;57543;45.442;9.212;2022-09-01T02:07:59;6.18;;;4.03;;
70169;SDS011;57543;45.442;9.212;2022-09-01T02:11:06;5.75;;;3.78;;
70169;SDS011;57543;45.442;9.212;2022-09-01T02:14:11;7.13;;;4.00;;
70169;SDS011;57543;45.442;9.212;2022-09-01T02:17:17;6.53;;;4.05;;
70169;SDS011;57543;45.442;9.212;2022-09-01T02:20:21;6.95;;;3.80;;
70169;SDS011;57543;45.442;9.212;2022-09-01T02:23:27;6.43;;;4.03;;
70169;SDS011;57543;45.442;9.212;2022-09-01T02:26:33;6.60;;;4.00;;
70169;SDS011;57543;45.442;9.212;2022-09-01T02:29:40;7.28;;;4.80;;
70169;SDS011;57543;45.442;9.212;2022-09-01T02:32:44;7.63;;;4.93;;
70169;SDS011;57543;45.442;9.212;2022-09-01T02:35:51;7.43;;;5.07;;
70169;SDS011;57543;45.442;9.212;2022-09-01T02:38:56;9.20;;;5.47;;
70169;SDS011;57543;45.442;9.212;2022-09-01T02:42:00;9.23;;;5.30;;
70169;SDS011;57543;45.442;9.212;2022-09-01T02:45:05;8.95;;;5.97;;
70169;SDS011;57543;45.442;9.212;2022-09-01T02:48:17;8.20;;;5.88;;
70169;SDS011;57543;45.442;9.212;2022-09-01T02:51:24;8.20;;;4.80;;
70169;SDS011;57543;45.442;9.212;2022-09-01T02:54:30;7.10;;;4.73;;
70169;SDS011;57543;45.442;9.212;2022-09-01T02:57:35;7.28;;;4.60;;
70169;SDS011;57543;45.442;9.212;2022-09-01T03:00:38;7.38;;;4.63;;
70169;SDS011;57543;45.442;9.212;2022-09-01T03:03:43;7.93;;;4.60;;
70169;SDS011;57543;45.442;9.212;2022-09-01T03:06:47;7.25;;;4.53;;
70169;SDS011;57543;45.442;9.212;2022-09-01T03:09:52;7.13;;;4.23;;
70169;SDS011;57543;45.442;9.212;2022-09-01T03:12:56;8.48;;;4.40;;
70169;SDS011;57543;45.442;9.212;2022-09-01T03:16:02;6.80;;;4.45;;
70169;SDS011;57543;45.442;9.212;2022-09-01T03:19:07;6.50;;;4.65;;
70169;SDS011;57543;45.442;9.212;2022-09-01T03:22:13;7.25;;;4.30;;
70169;SDS011;57543;45.442;9.212;2022-09-01T03:25:17;6.70;;;4.50;;
70169;SDS011;57543;45.442;9.212;2022-09-01T03:28:22;5.93;;;4.00;;
70169;SDS011;57543;45.442;9.212;2022-09-01T03:31:26;7.47;;;4.40;;
70169;SDS011;57543;45.442;9.212;2022-09-01T03:34:31;6.82;;;3.90;;
70169;SDS011;57543;45.442;9.212;2022-09-01T03:37:37;6.82;;;4.00;;
70169;SDS011;57543;45.442;9.212;2022-09-01T03:40:41;6.57;;;4.30;;
70169;SDS011;57543;45.442;9.212;2022-09-01T03:43:47;6.40;;;4.47;;
70169;SDS011;57543;45.442;9.212;2022-09-01T03:46:51;6.32;;;4.10;;
70169;SDS011;57543;45.442;9.212;2022-09-01T03:49:55;5.85;;;4.07;;
70169;SDS011;57543;45.442;9.212;2022-09-01T03:52:59;9.18;;;4.30;;
70169;SDS011;57543;45.442;9.212;2022-09-01T03:56:03;6.97;;;3.97;;
70169;SDS011;57543;45.442;9.212;2022-09-01T03:59:09;7.72;;;4.22;;
70169;SDS011;57543;45.442;9.212;2022-09-01T04:02:18;6.25;;;3.85;;
70169;SDS011;57543;45.442;9.212;2022-09-01T04:05:23;5.70;;;3.70;;
70169;SDS011;57543;45.442;9.212;2022-09-01T04:08:31;5.40;;;3.47;;
70169;SDS011;57543;45.442;9.212;2022-09-01T04:11:36;5.13;;;3.30;;
70169;SDS011;57543;45.442;9.212;2022-09-01T04:14:41;5.13;;;3.80;;
70169;SDS011;57543;45.442;9.212;2022-09-01T04:17:45;6.25;;;4.00;;
70169;SDS011;57543;45.442;9.212;2022-09-01T04:21:08;6.13;;;3.63;;
70169;SDS011;57543;45.442;9.212;2022-09-01T04:24:12;5.60;;;3.75;;
70169;SDS011;57543;45.442;9.212;2022-09-01T04:27:17;5.65;;;3.40;;
70169;SDS011;57543;45.442;9.212;2022-09-01T04:30:29;5.95;;;3.67;;
70169;SDS011;57543;45.442;9.212;2022-09-01T04:33:35;5.97;;;3.85;;
70169;SDS011;57543;45.442;9.212;2022-09-01T04:36:43;6.60;;;3.55;;
70169;SDS011;57543;45.442;9.212;2022-09-01T04:39:48;6.13;;;3.90;;
70169;SDS011;57543;45.442;9.212;2022-09-01T04:42:54;5.37;;;3.50;;
70169;SDS011;57543;45.442;9.212;2022-09-01T04:45:58;5.45;;;3.63;;
70169;SDS011;57543;45.442;9.212;2022-09-01T04:49:03;5.57;;;3.80;;
70169;SDS011;57543;45.442;9.212;2022-09-01T04:52:12;12.10;;;4.50;;
70169;SDS011;57543;45.442;9.212;2022-09-01T04:55:16;6.43;;;4.13;;
70169;SDS011;57543;45.442;9.212;2022-09-01T04:58:20;6.72;;;4.07;;
70169;SDS011;57543;45.442;9.212;2022-09-01T05:01:25;6.85;;;4.20;;
70169;SDS011;57543;45.442;9.212;2022-09-01T05:04:30;6.65;;;4.38;;
70169;SDS011;57543;45.442;9.212;2022-09-01T05:07:36;7.22;;;4.45;;
70169;SDS011;57543;45.442;9.212;2022-09-01T05:10:41;7.43;;;4.32;;
70169;SDS011;57543;45.442;9.212;2022-09-01T05:13:54;6.63;;;4.57;;
70169;SDS011;57543;45.442;9.212;2022-09-01T05:16:59;6.88;;;4.60;;
70169;SDS011;57543;45.442;9.212;2022-09-01T05:20:04;6.78;;;4.25;;
70169;SDS011;57543;45.442;9.212;2022-09-01T05:23:11;8.27;;;4.50;;
70169;SDS011;57543;45.442;9.212;2022-09-01T05:26:17;6.55;;;4.43;;
70169;SDS011;57543;45.442;9.212;2022-09-01T05:29:24;7.30;;;4.68;;
70169;SDS011;57543;45.442;9.212;2022-09-01T05:32:30;8.07;;;4.63;;
70169;SDS011;57543;45.442;9.212;2022-09-01T05:35:38;7.47;;;4.45;;
70169;SDS011;57543;45.442;9.212;2022-09-01T05:38:48;8.23;;;4.50;;
70169;SDS011;57543;45.442;9.212;2022-09-01T05:41:53;7.13;;;4.43;;
70169;SDS011;57543;45.442;9.212;2022-09-01T05:44:57;7.97;;;4.53;;
70169;SDS011;57543;45.442;9.212;2022-09-01T05:48:00;8.52;;;4.68;;
70169;SDS011;57543;45.442;9.212;2022-09-01T05:51:06;9.32;;;5.57;;
70169;SDS011;57543;45.442;9.212;2022-09-01T05:54:10;9.10;;;4.90;;
70169;SDS011;57543;45.442;9.212;2022-09-01T05:57:14;8.25;;;5.05;;
70169;SDS011;57543;45.442;9.212;2022-09-01T06:00:18;7.30;;;4.30;;
70169;SDS011;57543;45.442;9.212;2022-09-01T06:03:24;6.15;;;3.88;;
70169;SDS011;57543;45.442;9.212;2022-09-01T06:06:34;8.02;;;3.97;;
70169;SDS011;57543;45.442;9.212;2022-09-01T06:09:44;7.07;;;3.28;;
70169;SDS011;57543;45.442;9.212;2022-09-01T06:12:50;6.60;;;3.50;;
70169;SDS011;57543;45.442;9.212;2022-09-01T06:15:53;6.67;;;3.40;;
70169;SDS011;57543;45.442;9.212;2022-09-01T06:19:01;6.63;;;4.05;;
70169;SDS011;57543;45.442;9.212;2022-09-01T06:22:07;6.43;;;3.28;;
70169;SDS011;57543;45.442;9.212;2022-09-01T06:25:13;5.80;;;3.38;;
70169;SDS011;57543;45.442;9.212;2022-09-01T06:28:22;5.32;;;3.22;;
70169;SDS011;57543;45.442;9.212;2022-09-01T06:31:27;5.17;;;2.93;;
70169;SDS011;57543;45.442;9.212;2022-09-01T06:34:42;7.35;;;3.70;;
70169;SDS011;57543;45.442;9.212;2022-09-01T06:37:47;6.45;;;3.40;;
70169;SDS011;57543;45.442;9.212;2022-09-01T06:41:07;5.90;;;3.03;;
70169;SDS011;57543;45.442;9.212;2022-09-01T06:44:14;5.93;;;3.03;;
70169;SDS011;57543;45.442;9.212;2022-09-01T06:47:25;5.20;;;3.13;;
70169;SDS011;57543;45.442;9.212;2022-09-01T06:50:49;6.63;;;2.85;;
70169;SDS011;57543;45.442;9.212;2022-09-01T06:53:53;5.40;;;3.17;;
70169;SDS011;57543;45.442;9.212;2022-09-01T06:57:07;6.00;;;3.00;;
70169;SDS011;57543;45.442;9.212;2022-09-01T07:00:11;6.30;;;3.25;;
70169;SDS011;57543;45.442;9.212;2022-09-01T07:03:20;6.47;;;2.80;;
70169;SDS011;57543;45.442;9.212;2022-09-01T07:06:52;4.57;;;2.63;;
70169;SDS011;57543;45.442;9.212;2022-09-01T07:10:17;6.65;;;3.03;;
70169;SDS011;57543;45.442;9.212;2022-09-01T07:13:29;5.35;;;2.63;;
70169;SDS011;57543;45.442;9.212;2022-09-01T07:16:35;6.32;;;2.80;;
70169;SDS011;57543;45.442;9.212;2022-09-01T07:19:44;6.45;;;3.88;;
70169;SDS011;57543;45.442;9.212;2022-09-01T07:22:51;6.18;;;3.15;;
70169;SDS011;57543;45.442;9.212;2022-09-01T07:25:56;6.05;;;2.97;;
70169;SDS011;57543;45.442;9.212;2022-09-01T07:29:06;5.75;;;2.78;;
70169;SDS011;57543;45.442;9.212;2022-09-01T07:32:10;6.70;;;3.30;;
70169;SDS011;57543;45.442;9.212;2022-09-01T07:35:15;6.20;;;3.20;;
70169;SDS011;57543;45.442;9.212;2022-09-01T07:38:23;5.07;;;2.70;;
70169;SDS011;57543;45.442;9.212;2022-09-01T07:41:27;5.22;;;3.38;;
70169;SDS011;57543;45.442;9.212;2022-09-01T07:44:50;7.63;;;3.75;;
70169;SDS011;57543;45.442;9.212;2022-09-01T07:48:13;6.15;;;3.30;;
70169;SDS011;57543;45.442;9.212;2022-09-01T07:51:24;6.63;;;3.77;;
70169;SDS011;57543;45.442;9.212;2022-09-01T07:54:29;6.60;;;3.35;;
70169;SDS011;57543;45.442;9.212;2022-09-01T07:57:34;7.00;;;3.67;;
70169;SDS011;57543;45.442;9.212;2022-09-01T08:00:39;7.97;;;4.25;;
70169;SDS011;57543;45.442;9.212;2022-09-01T08:03:46;6.18;;;3.55;;
70169;SDS011;57543;45.442;9.212;2022-09-01T08:06:52;6.97;;;3.90;;
70169;SDS011;57543;45.442;9.212;2022-09-01T08:09:56;9.63;;;4.43;;
70169;SDS011;57543;45.442;9.212;2022-09-01T08:13:00;7.03;;;4.13;;
70169;SDS011;57543;45.442;9.212;2022-09-01T08:16:04;7.50;;;4.45;;
70169;SDS011;57543;45.442;9.212;2022-09-01T08:19:09;7.68;;;4.28;;
70169;SDS011;57543;45.442;9.212;2022-09-01T08:22:33;9.50;;;4.90;;
70169;SDS011;57543;45.442;9.212;2022-09-01T08:25:46;8.23;;;4.82;;
70169;SDS011;57543;45.442;9.212;2022-09-01T08:28:51;7.95;;;5.13;;
70169;SDS011;57543;45.442;9.212;2022-09-01T08:32:01;7.20;;;4.40;;
70169;SDS011;57543;45.442;9.212;2022-09-01T08:35:05;8.55;;;4.70;;
70169;SDS011;57543;45.442;9.212;2022-09-01T08:38:10;8.35;;;4.53;;
70169;SDS011;57543;45.442;9.212;2022-09-01T08:48:18;9.10;;;5.03;;
70169;SDS011;57543;45.442;9.212;2022-09-01T08:54:45;9.30;;;4.90;;
70169;SDS011;57543;45.442;9.212;2022-09-01T08:57:50;11.98;;;6.65;;
70169;SDS011;57543;45.442;9.212;2022-09-01T09:01:02;8.07;;;5.00;;
70169;SDS011;57543;45.442;9.212;2022-09-01T09:17:02;14.77;;;8.18;;
70169;SDS011;57543;45.442;9.212;2022-09-01T09:20:06;14.02;;;7.70;;
70169;SDS011;57543;45.442;9.212;2022-09-01T09:23:18;10.35;;;6.50;;
70169;SDS011;57543;45.442;9.212;2022-09-01T09:26:29;9.87;;;6.80;;
70169;SDS011;57543;45.442;9.212;2022-09-01T09:29:33;8.55;;;5.80;;
70169;SDS011;57543;45.442;9.212;2022-09-01T09:32:45;10.05;;;5.50;;
70169;SDS011;57543;45.442;9.212;2022-09-01T09:36:17;10.60;;;6.03;;
70169;SDS011;57543;45.442;9.212;2022-09-01T09:39:25;8.73;;;5.65;;
70169;SDS011;57543;45.442;9.212;2022-09-01T09:42:29;10.37;;;6.97;;
70169;SDS011;57543;45.442;9.212;2022-09-01T09:45:34;9.32;;;6.20;;
70169;SDS011;57543;45.442;9.212;2022-09-01T09:48:40;10.20;;;6.43;;
70169;SDS011;57543;45.442;9.212;2022-09-01T09:51:44;11.02;;;6.63;;
70169;SDS011;57543;45.442;9.212;2022-09-01T09:55:02;13.18;;;8.13;;
70169;SDS011;57543;45.442;9.212;2022-09-01T09:58:09;12.67;;;7.03;;
70169;SDS011;57543;45.442;9.212;2022-09-01T10:04:37;12.60;;;7.03;;
70169;SDS011;57543;45.442;9.212;2022-09-01T10:07:41;8.50;;;4.80;;
70169;SDS011;57543;45.442;9.212;2022-09-01T10:10:46;9.30;;;6.07;;
70169;SDS011;57543;45.442;9.212;2022-09-01T10:13:51;12.73;;;7.40;;
70169;SDS011;57543;45.442;9.212;2022-09-01T10:16:57;9.82;;;7.45;;
70169;SDS011;57543;45.442;9.212;2022-09-01T10:20:06;11.95;;;6.95;;
70169;SDS011;57543;45.442;9.212;2022-09-01T10:23:15;9.65;;;5.72;;
70169;SDS011;57543;45.442;9.212;2022-09-01T10:26:31;9.13;;;5.85;;
70169;SDS011;57543;45.442;9.212;2022-09-01T10:29:40;8.97;;;5.63;;
70169;SDS011;57543;45.442;9.212;2022-09-01T10:32:48;9.10;;;6.15;;
70169;SDS011;57543;45.442;9.212;2022-09-01T10:35:57;11.35;;;7.75;;
70169;SDS011;57543;45.442;9.212;2022-09-01T10:39:02;12.38;;;7.68;;
70169;SDS011;57543;45.442;9.212;2022-09-01T10:42:07;11.00;;;7.68;;
70169;SDS011;57543;45.442;9.212;2022-09-01T10:48:37;9.75;;;6.70;;
70169;SDS011;57543;45.442;9.212;2022-09-01T10:51:42;9.55;;;5.63;;
70169;SDS011;57543;45.442;9.212;2022-09-01T10:54:58;9.18;;;6.50;;
70169;SDS011;57543;45.442;9.212;2022-09-01T11:01:11;10.98;;;7.18;;
70169;SDS011;57543;45.442;9.212;2022-09-01T11:04:16;10.45;;;7.10;;
70169;SDS011;57543;45.442;9.212;2022-09-01T11:07:31;7.88;;;5.57;;
70169;SDS011;57543;45.442;9.212;2022-09-01T11:10:56;11.70;;;6.80;;
70169;SDS011;57543;45.442;9.212;2022-09-01T11:14:18;8.55;;;5.10;;
70169;SDS011;57543;45.442;9.212;2022-09-01T11:20:37;8.52;;;6.20;;
70169;SDS011;57543;45.442;9.212;2022-09-01T11:23:43;8.43;;;5.15;;
70169;SDS011;57543;45.442;9.212;2022-09-01T11:26:48;7.25;;;4.85;;
70169;SDS011;57543;45.442;9.212;2022-09-01T11:29:57;9.65;;;6.20;;
70169;SDS011;57543;45.442;9.212;2022-09-01T11:36:30;7.22;;;4.75;;
70169;SDS011;57543;45.442;9.212;2022-09-01T11:39:57;7.70;;;5.50;;
70169;SDS011;57543;45.442;9.212;2022-09-01T11:43:09;8.10;;;4.22;;
70169;SDS011;57543;45.442;9.212;2022-09-01T11:46:20;5.47;;;4.20;;
70169;SDS011;57543;45.442;9.212;2022-09-01T11:49:34;7.45;;;4.80;;
70169;SDS011;57543;45.442;9.212;2022-09-01T11:52:41;7.93;;;5.72;;
70169;SDS011;57543;45.442;9.212;2022-09-01T11:55:55;8.23;;;4.60;;
70169;SDS011;57543;45.442;9.212;2022-09-01T11:59:14;7.70;;;5.55;;
70169;SDS011;57543;45.442;9.212;2022-09-01T12:02:34;8.13;;;5.47;;
70169;SDS011;57543;45.442;9.212;2022-09-01T12:05:38;8.73;;;5.57;;
70169;SDS011;57543;45.442;9.212;2022-09-01T12:08:42;9.00;;;6.03;;
70169;SDS011;57543;45.442;9.212;2022-09-01T12:11:56;7.50;;;5.13;;
70169;SDS011;57543;45.442;9.212;2022-09-01T12:15:04;6.50;;;4.47;;
70169;SDS011;57543;45.442;9.212;2022-09-01T12:21:23;10.53;;;6.53;;
70169;SDS011;57543;45.442;9.212;2022-09-01T12:24:34;9.52;;;6.50;;
70169;SDS011;57543;45.442;9.212;2022-09-01T12:27:38;6.93;;;5.00;;
70169;SDS011;57543;45.442;9.212;2022-09-01T12:30:42;9.52;;;5.65;;
70169;SDS011;57543;45.442;9.212;2022-09-01T12:33:47;8.20;;;5.10;;
70169;SDS011;57543;45.442;9.212;2022-09-01T12:40:26;7.47;;;4.00;;
70169;SDS011;57543;45.442;9.212;2022-09-01T12:43:38;6.40;;;3.67;;
70169;SDS011;57543;45.442;9.212;2022-09-01T12:46:43;7.30;;;4.30;;
70169;SDS011;57543;45.442;9.212;2022-09-01T12:49:47;6.18;;;3.53;;
70169;SDS011;57543;45.442;9.212;2022-09-01T12:53:14;7.63;;;4.93;;
70169;SDS011;57543;45.442;9.212;2022-09-01T12:56:26;7.57;;;3.40;;
70169;SDS011;57543;45.442;9.212;2022-09-01T12:59:33;5.03;;;3.10;;
70169;SDS011;57543;45.442;9.212;2022-09-01T13:05:53;5.20;;;2.97;;
70169;SDS011;57543;45.442;9.212;2022-09-01T13:08:58;5.15;;;2.83;;
70169;SDS011;57543;45.442;9.212;2022-09-01T13:12:09;5.68;;;3.00;;
70169;SDS011;57543;45.442;9.212;2022-09-01T13:15:20;4.82;;;2.92;;
70169;SDS011;57543;45.442;9.212;2022-09-01T13:18:25;6.25;;;2.75;;
70169;SDS011;57543;45.442;9.212;2022-09-01T13:21:29;5.95;;;3.35;;
70169;SDS011;57543;45.442;9.212;2022-09-01T13:24:34;7.38;;;3.22;;
70169;SDS011;57543;45.442;9.212;2022-09-01T13:27:38;5.47;;;3.47;;
70169;SDS011;57543;45.442;9.212;2022-09-01T13:30:47;4.93;;;3.25;;
70169;SDS011;57543;45.442;9.212;2022-09-01T13:33:57;5.95;;;3.50;;
70169;SDS011;57543;45.442;9.212;2022-09-01T13:37:01;5.13;;;3.28;;
70169;SDS011;57543;45.442;9.212;2022-09-01T13:40:04;5.75;;;3.55;;
70169;SDS011;57543;45.442;9.212;2022-09-01T13:43:20;6.90;;;3.90;;
70169;SDS011;57543;45.442;9.212;2022-09-01T13:46:25;5.00;;;3.20;;
70169;SDS011;57543;45.442;9.212;2022-09-01T13:49:28;5.18;;;3.20;;
70169;SDS011;57543;45.442;9.212;2022-09-01T13:52:32;5.57;;;3.22;;
70169;SDS011;57543;45.442;9.212;2022-09-01T13:55:39;5.30;;;2.92;;
70169;SDS011;57543;45.442;9.212;2022-09-01T13:58:44;4.50;;;2.75;;
70169;SDS011;57543;45.442;9.212;2022-09-01T14:01:48;5.22;;;3.00;;
70169;SDS011;57543;45.442;9.212;2022-09-01T14:04:54;6.53;;;3.38;;
70169;SDS011;57543;45.442;9.212;2022-09-01T14:07:58;5.05;;;2.90;;
70169;SDS011;57543;45.442;9.212;2022-09-01T14:11:03;5.47;;;2.75;;
70169;SDS011;57543;45.442;9.212;2022-09-01T14:14:07;4.15;;;2.50;;
70169;SDS011;57543;45.442;9.212;2022-09-01T14:17:11;5.47;;;2.60;;
70169;SDS011;57543;45.442;9.212;2022-09-01T14:20:17;4.05;;;2.50;;
70169;SDS011;57543;45.442;9.212;2022-09-01T14:23:25;5.22;;;2.60;;
70169;SDS011;57543;45.442;9.212;2022-09-01T14:26:30;5.03;;;2.83;;
70169;SDS011;57543;45.442;9.212;2022-09-01T14:29:33;6.40;;;3.00;;
70169;SDS011;57543;45.442;9.212;2022-09-01T14:32:38;4.72;;;2.30;;
70169;SDS011;57543;45.442;9.212;2022-09-01T14:35:44;5.45;;;2.20;;
70169;SDS011;57543;45.442;9.212;2022-09-01T14:38:50;4.05;;;1.98;;
70169;SDS011;57543;45.442;9.212;2022-09-01T14:41:55;4.43;;;2.10;;
70169;SDS011;57543;45.442;9.212;2022-09-01T14:44:58;4.35;;;1.80;;
70169;SDS011;57543;45.442;9.212;2022-09-01T14:48:04;5.80;;;1.98;;
70169;SDS011;57543;45.442;9.212;2022-09-01T14:51:08;4.25;;;1.80;;
70169;SDS011;57543;45.442;9.212;2022-09-01T14:54:41;3.00;;;1.67;;
70169;SDS011;57543;45.442;9.212;2022-09-01T14:57:44;5.35;;;1.65;;
70169;SDS011;57543;45.442;9.212;2022-09-01T15:00:48;2.80;;;1.40;;
70169;SDS011;57543;45.442;9.212;2022-09-01T15:03:52;3.22;;;1.60;;
70169;SDS011;57543;45.442;9.212;2022-09-01T15:06:56;3.30;;;1.40;;
70169;SDS011;57543;45.442;9.212;2022-09-01T15:10:00;3.90;;;1.38;;
70169;SDS011;57543;45.442;9.212;2022-09-01T15:13:04;2.83;;;1.30;;
70169;SDS011;57543;45.442;9.212;2022-09-01T15:16:13;3.20;;;1.30;;
70169;SDS011;57543;45.442;9.212;2022-09-01T15:19:18;5.20;;;1.52;;
70169;SDS011;57543;45.442;9.212;2022-09-01T15:22:23;3.40;;;1.67;;
70169;SDS011;57543;45.442;9.212;2022-09-01T15:25:27;3.80;;;1.50;;
70169;SDS011;57543;45.442;9.212;2022-09-01T15:28:30;2.80;;;1.25;;
70169;SDS011;57543;45.442;9.212;2022-09-01T15:31:34;2.83;;;1.33;;
70169;SDS011;57543;45.442;9.212;2022-09-01T15:34:38;2.78;;;1.30;;
70169;SDS011;57543;45.442;9.212;2022-09-01T15:37:42;3.55;;;1.55;;
70169;SDS011;57543;45.442;9.212;2022-09-01T15:40:47;4.50;;;1.75;;
70169;SDS011;57543;45.442;9.212;2022-09-01T15:43:51;3.45;;;1.50;;
70169;SDS011;57543;45.442;9.212;2022-09-01T15:46:55;3.53;;;1.70;;
70169;SDS011;57543;45.442;9.212;2022-09-01T15:49:59;5.85;;;1.60;;
70169;SDS011;57543;45.442;9.212;2022-09-01T15:53:03;4.03;;;2.03;;
70169;SDS011;57543;45.442;9.212;2022-09-01T15:56:10;3.03;;;1.50;;
70169;SDS011;57543;45.442;9.212;2022-09-01T15:59:14;4.55;;;1.80;;
70169;SDS011;57543;45.442;9.212;2022-09-01T16:02:18;3.60;;;1.67;;
70169;SDS011;57543;45.442;9.212;2022-09-01T16:05:23;3.45;;;1.55;;
70169;SDS011;57543;45.442;9.212;2022-09-01T16:08:27;3.17;;;1.50;;
70169;SDS011;57543;45.442;9.212;2022-09-01T16:11:32;5.95;;;2.80;;
70169;SDS011;57543;45.442;9.212;2022-09-01T16:14:37;3.80;;;2.10;;
70169;SDS011;57543;45.442;9.212;2022-09-01T16:24:26;3.13;;;1.35;;
70169;SDS011;57543;45.442;9.212;2022-09-01T16:27:31;4.00;;;1.70;;
70169;SDS011;57543;45.442;9.212;2022-09-01T16:30:38;4.70;;;1.77;;
70169;SDS011;57543;45.442;9.212;2022-09-01T16:33:53;3.00;;;1.40;;
70169;SDS011;57543;45.442;9.212;2022-09-01T16:40:30;3.60;;;1.20;;
70169;SDS011;57543;45.442;9.212;2022-09-01T16:43:58;4.95;;;1.50;;
70169;SDS011;57543;45.442;9.212;2022-09-01T17:13:59;6.18;;;1.58;;
70169;SDS011;57543;45.442;9.212;2022-09-01T17:17:11;3.47;;;1.50;;
70169;SDS011;57543;45.442;9.212;2022-09-01T17:20:21;2.80;;;1.20;;
70169;SDS011;57543;45.442;9.212;2022-09-01T17:23:32;3.90;;;1.60;;
70169;SDS011;57543;45.442;9.212;2022-09-01T17:26:40;2.90;;;1.30;;
70169;SDS011;57543;45.442;9.212;2022-09-01T17:29:48;3.13;;;1.52;;
70169;SDS011;57543;45.442;9.212;2022-09-01T17:37:17;4.57;;;1.50;;
70169;SDS011;57543;45.442;9.212;2022-09-01T17:41:15;5.13;;;1.90;;
70169;SDS011;57543;45.442;9.212;2022-09-01T17:44:29;6.13;;;1.80;;
70169;SDS011;57543;45.442;9.212;2022-09-01T17:51:34;4.88;;;2.30;;
70169;SDS011;57543;45.442;9.212;2022-09-01T18:01:23;5.97;;;2.10;;
70169;SDS011;57543;45.442;9.212;2022-09-01T18:11:26;5.43;;;2.10;;
70169;SDS011;57543;45.442;9.212;2022-09-01T18:17:53;4.00;;;1.60;;
70169;SDS011;57543;45.442;9.212;2022-09-01T18:21:22;6.72;;;1.50;;
70169;SDS011;57543;45.442;9.212;2022-09-01T18:24:33;4.30;;;1.50;;
70169;SDS011;57543;45.442;9.212;2022-09-01T18:27:44;3.40;;;1.40;;
70169;SDS011;57543;45.442;9.212;2022-09-01T18:34:20;3.92;;;1.60;;
70169;SDS011;57543;45.442;9.212;2022-09-01T18:37:38;3.97;;;1.58;;
70169;SDS011;57543;45.442;9.212;2022-09-01T18:44:52;4.78;;;1.42;;
70169;SDS011;57543;45.442;9.212;2022-09-01T18:48:23;8.02;;;1.92;;
70169;SDS011;57543;45.442;9.212;2022-09-01T18:54:37;4.10;;;1.50;;
70169;SDS011;57543;45.442;9.212;2022-09-01T18:58:07;3.83;;;1.35;;
70169;SDS011;57543;45.442;9.212;2022-09-01T19:01:30;7.40;;;1.60;;
70169;SDS011;57543;45.442;9.212;2022-09-01T19:04:37;4.27;;;1.50;;
70169;SDS011;57543;45.442;9.212;2022-09-01T19:08:03;9.80;;;1.60;;
70169;SDS011;57543;45.442;9.212;2022-09-01T19:11:15;4.68;;;1.58;;
70169;SDS011;57543;45.442;9.212;2022-09-01T19:14:32;5.40;;;1.40;;
70169;SDS011;57543;45.442;9.212;2022-09-01T19:21:15;3.85;;;1.33;;
70169;SDS011;57543;45.442;9.212;2022-09-01T19:27:30;4.13;;;1.40;;
70169;SDS011;57543;45.442;9.212;2022-09-01T19:30:34;3.25;;;1.50;;
70169;SDS011;57543;45.442;9.212;2022-09-01T19:33:46;4.70;;;1.80;;
70169;SDS011;57543;45.442;9.212;2022-09-01T19:36:56;4.68;;;1.50;;
70169;SDS011;57543;45.442;9.212;2022-09-01T19:40:02;5.22;;;1.55;;
70169;SDS011;57543;45.442;9.212;2022-09-01T19:43:09;5.07;;;1.30;;
70169;SDS011;57543;45.442;9.212;2022-09-01T19:49:53;4.07;;;1.63;;
70169;SDS011;57543;45.442;9.212;2022-09-01T20:03:37;3.78;;;1.33;;
70169;SDS011;57543;45.442;9.212;2022-09-01T20:06:43;2.95;;;1.30;;
70169;SDS011;57543;45.442;9.212;2022-09-01T20:09:55;4.90;;;1.80;;
70169;SDS011;57543;45.442;9.212;2022-09-01T20:19:51;8.60;;;1.50;;
70169;SDS011;57543;45.442;9.212;2022-09-01T20:26:12;3.70;;;1.45;;
70169;SDS011;57543;45.442;9.212;2022-09-01T20:29:39;3.60;;;1.40;;
70169;SDS011;57543;45.442;9.212;2022-09-01T20:36:03;3.50;;;1.60;;
70169;SDS011;57543;45.442;9.212;2022-09-01T20:39:26;5.00;;;1.60;;
70169;SDS011;57543;45.442;9.212;2022-09-01T20:43:12;4.00;;;1.55;;
70169;SDS011;57543;45.442;9.212;2022-09-01T20:46:22;5.05;;;1.55;;
70169;SDS011;57543;45.442;9.212;2022-09-01T20:49:28;3.65;;;1.60;;
70169;SDS011;57543;45.442;9.212;2022-09-01T20:55:57;5.10;;;1.63;;
70169;SDS011;57543;45.442;9.212;2022-09-01T20:59:12;6.32;;;2.00;;
70169;SDS011;57543;45.442;9.212;2022-09-01T21:05:53;6.45;;;2.33;;
70169;SDS011;57543;45.442;9.212;2022-09-01T21:09:11;5.50;;;2.17;;
70169;SDS011;57543;45.442;9.212;2022-09-01T21:19:58;4.93;;;1.80;;
70169;SDS011;57543;45.442;9.212;2022-09-01T21:23:16;4.18;;;1.90;;
70169;SDS011;57543;45.442;9.212;2022-09-01T21:26:22;4.72;;;2.08;;
70169;SDS011;57543;45.442;9.212;2022-09-01T21:32:55;4.00;;;2.00;;
70169;SDS011;57543;45.442;9.212;2022-09-01T21:35:59;5.65;;;2.00;;
70169;SDS011;57543;45.442;9.212;2022-09-01T21:39:03;5.95;;;2.13;;
70169;SDS011;57543;45.442;9.212;2022-09-01T21:42:07;4.85;;;2.00;;
70169;SDS011;57543;45.442;9.212;2022-09-01T21:45:16;4.13;;;2.50;;